Time;durP1;ratioP1;P1;durP2;ratioP2;P2;SDS_P1;SDS_P2;PMS_P1;PMS_P2;Temp;Humidity;BMP_temperature;BMP_pressure;BME280_temperature;BME280_humidity;BME280_pressure;Samples;Min_cycle;Max_cycle;Signal;HPM_P1;HPM_P2
2022/08/22 00:02:02;;;;;;;0.60;0.60;;;21.90;99.90;;;;;;5065375;28;20189;-54
2022/08/22 00:04:36;;;;;;;0.80;0.80;;;21.90;99.90;;;;;;5060301;28;20201;-54
2022/08/22 00:07:10;;;;;;;0.70;0.70;;;21.90;99.90;;;;;;5060340;28;20193;-54
2022/08/22 00:09:44;;;;;;;1.40;0.90;;;21.90;99.90;;;;;;5064738;28;20941;-51
2022/08/22 00:12:20;;;;;;;0.90;0.90;;;21.90;99.90;;;;;;5064619;28;20216;-51
2022/08/22 00:14:53;;;;;;;1.20;0.80;;;21.90;99.90;;;;;;5066536;28;20180;-54
2022/08/22 00:17:41;;;;;;;0.80;0.80;;;21.90;99.90;;;;;;5063880;28;20265;-48
2022/08/22 00:20:14;;;;;;;1.23;1.13;;;21.90;99.90;;;;;;5059890;28;20223;-54
2022/08/22 00:22:48;;;;;;;1.27;1.00;;;21.90;99.90;;;;;;5059201;28;20205;-54
2022/08/22 00:25:35;;;;;;;0.80;0.80;;;21.90;99.90;;;;;;5065601;28;20236;-52
2022/08/22 00:28:07;;;;;;;0.80;0.80;;;21.80;99.90;;;;;;5061081;28;20185;-54
2022/08/22 00:30:42;;;;;;;0.80;0.80;;;21.90;99.90;;;;;;5065405;28;20272;-55
2022/08/22 00:33:20;;;;;;;0.85;0.85;;;21.80;99.90;;;;;;5066147;28;20548;-57
2022/08/22 00:35:52;;;;;;;0.68;0.68;;;21.90;99.90;;;;;;5062785;28;20213;-55
2022/08/22 00:38:26;;;;;;;1.20;1.10;;;21.90;99.90;;;;;;5065023;28;20627;-53
2022/08/22 00:40:59;;;;;;;0.70;0.70;;;21.90;99.90;;;;;;5062321;28;20629;-54
2022/08/22 00:43:50;;;;;;;0.98;0.95;;;21.90;99.90;;;;;;5064045;28;20625;-53
2022/08/22 00:46:44;;;;;;;0.88;0.88;;;21.90;99.90;;;;;;5061321;28;20202;-55
2022/08/22 00:49:31;;;;;;;0.85;0.85;;;21.90;99.90;;;;;;5060324;28;20276;-53
2022/08/22 00:52:12;;;;;;;0.68;0.68;;;21.90;99.90;;;;;;5051240;28;20221;-52
2022/08/22 00:55:03;;;;;;;1.08;0.98;;;21.90;99.90;;;;;;5061727;28;20268;-54
2022/08/22 00:57:43;;;;;;;1.50;1.10;;;21.90;99.90;;;;;;5056982;28;20208;-54
2022/08/22 01:00:15;;;;;;;1.00;1.00;;;22.00;99.90;;;;;;5065182;28;20283;-52
2022/08/22 01:03:19;;;;;;;0.90;0.90;;;22.00;99.90;;;;;;5063443;28;20321;-50
2022/08/22 01:06:03;;;;;;;1.00;1.00;;;21.90;99.90;;;;;;5063655;28;20209;-55
2022/08/22 01:08:46;;;;;;;1.20;0.90;;;21.90;99.90;;;;;;5061774;28;20193;-55
2022/08/22 01:11:30;;;;;;;1.10;0.95;;;21.90;99.90;;;;;;5063656;28;20197;-54
2022/08/22 01:14:17;;;;;;;1.05;1.02;;;21.90;99.90;;;;;;5060898;28;20235;-52
2022/08/22 01:17:43;;;;;;;1.27;1.15;;;21.90;99.90;;;;;;5061217;28;20235;-53
2022/08/22 01:20:58;;;;;;;3.28;1.20;;;21.90;99.90;;;;;;5061065;28;20193;-54
2022/08/22 01:23:58;;;;;;;1.80;1.02;;;21.90;99.90;;;;;;5062707;28;20543;-54
2022/08/22 01:27:10;;;;;;;1.10;1.00;;;21.80;99.90;;;;;;5065342;28;20205;-53
2022/08/22 01:30:06;;;;;;;1.00;0.80;;;21.90;99.90;;;;;;5064216;28;20645;-52
2022/08/22 01:33:10;;;;;;;1.65;1.23;;;21.80;99.90;;;;;;5061466;28;20631;-55
2022/08/22 01:36:11;;;;;;;1.88;1.17;;;21.80;99.90;;;;;;5060267;28;20260;-54
2022/08/22 01:39:01;;;;;;;0.98;0.98;;;21.80;99.90;;;;;;5060386;28;20767;-53
2022/08/22 01:42:02;;;;;;;0.88;0.88;;;21.80;99.90;;;;;;5061012;28;20338;-53
2022/08/22 01:45:01;;;;;;;1.05;1.02;;;21.70;99.90;;;;;;5065312;28;20288;-54
2022/08/22 01:47:34;;;;;;;0.90;0.90;;;21.70;99.90;;;;;;5060118;28;20711;-53
2022/08/22 01:50:12;;;;;;;0.82;0.82;;;21.70;99.90;;;;;;5059044;28;20197;-54
2022/08/22 01:52:44;;;;;;;1.00;1.00;;;21.70;99.90;;;;;;5058597;28;20197;-55
2022/08/22 01:55:20;;;;;;;0.85;0.85;;;21.70;99.90;;;;;;5063200;28;20178;-54
2022/08/22 01:57:53;;;;;;;1.00;1.00;;;21.70;99.90;;;;;;5061426;28;20197;-56
2022/08/22 02:00:22;;;;;;;1.02;0.90;;;21.70;99.90;;;;;;5060028;28;20197;-54
2022/08/22 02:03:06;;;;;;;1.00;1.00;;;21.70;99.90;;;;;;5061602;28;20563;-55
2022/08/22 02:05:38;;;;;;;1.02;1.02;;;21.80;99.90;;;;;;5068003;28;20633;-56
2022/08/22 02:08:18;;;;;;;1.20;0.80;;;21.70;99.90;;;;;;5063046;28;20655;-55
2022/08/22 02:10:56;;;;;;;1.02;0.90;;;21.70;99.90;;;;;;5067401;28;20661;-54
2022/08/22 02:13:35;;;;;;;1.33;0.98;;;21.70;99.90;;;;;;5062510;28;20279;-55
2022/08/22 02:16:10;;;;;;;0.80;0.80;;;21.70;99.90;;;;;;5066037;28;20269;-54
2022/08/22 02:18:52;;;;;;;1.10;0.98;;;21.70;99.90;;;;;;5065534;28;20706;-54
2022/08/22 02:21:26;;;;;;;2.90;1.00;;;21.70;99.90;;;;;;5064248;28;20282;-55
2022/08/22 02:23:58;;;;;;;1.33;1.02;;;21.70;99.90;;;;;;5066361;28;20192;-54
2022/08/22 02:26:36;;;;;;;0.82;0.80;;;21.70;99.90;;;;;;5064940;28;20205;-53
2022/08/22 02:29:14;;;;;;;0.80;0.80;;;21.70;99.90;;;;;;5064818;28;20556;-55
2022/08/22 02:31:53;;;;;;;0.70;0.70;;;21.70;99.90;;;;;;5069056;28;20272;-55
2022/08/22 02:34:37;;;;;;;0.80;0.80;;;21.70;99.90;;;;;;5065914;28;20296;-54
2022/08/22 02:37:10;;;;;;;0.80;0.80;;;21.70;99.90;;;;;;5063756;28;20216;-55
2022/08/22 02:39:46;;;;;;;5.03;1.00;;;21.70;99.90;;;;;;5066372;28;20289;-55
2022/08/22 02:42:22;;;;;;;0.60;0.60;;;21.70;99.90;;;;;;5065850;28;20212;-55
2022/08/22 02:45:01;;;;;;;0.80;0.80;;;21.70;99.90;;;;;;5065876;28;20200;-53
2022/08/22 02:47:35;;;;;;;0.93;0.68;;;21.70;99.90;;;;;;5064265;28;20272;-55
2022/08/22 02:50:12;;;;;;;2.45;0.80;;;21.70;99.90;;;;;;5060952;28;20232;-56
2022/08/22 02:52:54;;;;;;;0.77;0.77;;;21.70;99.90;;;;;;5063046;28;20205;-55
2022/08/22 02:55:36;;;;;;;0.57;0.57;;;21.70;99.90;;;;;;5061468;28;20255;-56
2022/08/22 02:58:08;;;;;;;0.52;0.52;;;21.70;99.90;;;;;;5063044;28;20200;-53
2022/08/22 03:00:46;;;;;;;1.58;0.82;;;21.70;99.90;;;;;;5063628;28;20660;-55
2022/08/22 03:03:22;;;;;;;0.60;0.60;;;21.80;99.90;;;;;;5057772;28;20334;-55
2022/08/22 03:05:57;;;;;;;0.57;0.57;;;21.70;99.90;;;;;;5066207;28;20212;-56
2022/08/22 03:08:28;;;;;;;0.63;0.63;;;21.80;99.90;;;;;;5062510;28;20236;-55
2022/08/22 03:11:15;;;;;;;0.70;0.70;;;21.70;99.90;;;;;;5066316;28;20193;-52
2022/08/22 03:13:55;;;;;;;0.60;0.60;;;21.70;99.90;;;;;;5065660;28;20315;-49
2022/08/22 03:16:30;;;;;;;0.80;0.80;;;21.70;99.90;;;;;;5064051;28;20530;-54
2022/08/22 03:19:04;;;;;;;0.70;0.70;;;21.70;99.90;;;;;;5062556;28;20196;-51
2022/08/22 03:21:36;;;;;;;0.60;0.60;;;21.70;99.90;;;;;;5065767;28;20204;-53
2022/08/22 03:24:11;;;;;;;2.00;0.82;;;21.60;99.90;;;;;;5065819;28;20267;-54
2022/08/22 03:26:46;;;;;;;0.73;0.73;;;21.70;99.90;;;;;;5064554;28;20343;-51
2022/08/22 03:29:20;;;;;;;0.80;0.77;;;21.70;99.90;;;;;;5061126;28;20608;-53
2022/08/22 03:32:09;;;;;;;0.60;0.60;;;21.70;99.90;;;;;;5061958;28;20228;-51
2022/08/22 03:34:37;;;;;;;0.50;0.50;;;21.60;99.90;;;;;;5063039;28;20205;-53
2022/08/22 03:37:13;;;;;;;0.73;0.73;;;21.60;99.90;;;;;;5062478;28;20676;-55
2022/08/22 03:39:51;;;;;;;1.20;0.70;;;21.60;99.90;;;;;;5062638;28;20232;-55
2022/08/22 03:42:54;;;;;;;0.65;0.65;;;21.60;99.90;;;;;;5064847;28;20193;-53
2022/08/22 03:45:49;;;;;;;0.88;0.70;;;21.50;99.90;;;;;;5030858;28;20206;-56
2022/08/22 03:48:49;;;;;;;0.60;0.60;;;21.50;99.90;;;;;;5059895;28;20202;-52
2022/08/22 03:51:32;;;;;;;0.55;0.55;;;21.50;99.90;;;;;;5026958;28;20281;-50
2022/08/22 03:54:28;;;;;;;0.70;0.70;;;21.50;99.90;;;;;;5061269;28;20575;-54
2022/08/22 03:57:27;;;;;;;0.65;0.65;;;21.50;99.90;;;;;;5058302;28;20223;-55
2022/08/22 04:00:48;;;;;;;1.40;0.75;;;21.60;99.90;;;;;;5055982;28;20201;-54
2022/08/22 04:03:59;;;;;;;1.00;0.77;;;21.60;99.90;;;;;;5013874;28;20297;-53
2022/08/22 04:06:45;;;;;;;1.10;1.00;;;21.60;99.90;;;;;;5059801;28;20287;-53
2022/08/22 04:09:42;;;;;;;2.00;0.98;;;21.60;99.90;;;;;;5062849;28;20194;-53
2022/08/22 04:12:35;;;;;;;0.70;0.70;;;21.70;99.90;;;;;;5065007;28;20274;-51
2022/08/22 04:15:30;;;;;;;0.73;0.73;;;21.70;99.90;;;;;;5065075;28;20190;-51
2022/08/22 04:18:14;;;;;;;2.15;0.80;;;21.70;99.90;;;;;;5065863;28;20189;-50
2022/08/22 04:21:13;;;;;;;0.70;0.70;;;21.70;99.90;;;;;;5064527;28;20665;-49
2022/08/22 04:24:16;;;;;;;0.80;0.80;;;21.70;99.90;;;;;;5063649;28;20274;-49
2022/08/22 04:26:51;;;;;;;0.80;0.80;;;21.70;99.90;;;;;;5065158;28;20367;-51
2022/08/22 04:29:23;;;;;;;1.00;1.00;;;21.70;99.90;;;;;;5064697;28;20295;-50
2022/08/22 04:31:54;;;;;;;0.85;0.85;;;21.70;99.90;;;;;;5059852;28;20187;-50
2022/08/22 04:34:27;;;;;;;0.60;0.60;;;21.70;99.90;;;;;;5064362;28;20217;-44
2022/08/22 04:37:01;;;;;;;0.80;0.80;;;21.70;99.90;;;;;;5063369;28;20186;-48
2022/08/22 04:39:34;;;;;;;0.77;0.77;;;21.70;99.90;;;;;;5060048;28;20394;-47
2022/08/22 04:42:07;;;;;;;0.80;0.80;;;21.70;99.90;;;;;;5058072;28;20542;-52
2022/08/22 04:44:40;;;;;;;0.88;0.88;;;21.70;99.90;;;;;;5064896;28;20189;-50
2022/08/22 04:47:23;;;;;;;2.08;1.20;;;21.70;99.90;;;;;;5056308;28;20576;-51
2022/08/22 04:49:57;;;;;;;1.38;1.08;;;21.70;99.90;;;;;;5059310;28;20223;-49
2022/08/22 04:52:39;;;;;;;1.25;0.80;;;21.80;99.90;;;;;;5065929;28;20661;-50
2022/08/22 04:55:21;;;;;;;0.88;0.88;;;21.80;99.90;;;;;;5064206;28;20193;-52
2022/08/22 04:58:00;;;;;;;0.60;0.60;;;21.80;99.90;;;;;;5064873;28;20184;-54
2022/08/22 05:00:39;;;;;;;0.80;0.80;;;21.80;99.90;;;;;;5066134;28;20227;-54
2022/08/22 05:03:12;;;;;;;0.82;0.82;;;21.70;99.90;;;;;;5065460;28;20214;-55
2022/08/22 05:05:44;;;;;;;0.90;0.90;;;21.80;99.90;;;;;;5067570;28;20722;-52
2022/08/22 05:08:18;;;;;;;1.10;1.00;;;21.80;99.90;;;;;;5066576;28;20193;-54
2022/08/22 05:10:48;;;;;;;0.85;0.77;;;21.80;99.90;;;;;;5063421;28;20573;-51
2022/08/22 05:13:21;;;;;;;0.90;0.90;;;21.80;99.90;;;;;;5064554;28;20244;-54
2022/08/22 05:15:53;;;;;;;1.00;1.00;;;21.80;99.90;;;;;;5064549;28;20181;-51
2022/08/22 05:18:25;;;;;;;0.90;0.90;;;21.90;99.90;;;;;;5062149;28;20660;-53
2022/08/22 05:20:54;;;;;;;0.88;0.88;;;21.90;99.90;;;;;;5060638;28;20275;-53
2022/08/22 05:23:28;;;;;;;1.08;0.98;;;21.90;99.90;;;;;;5062136;28;20674;-54
2022/08/22 05:25:58;;;;;;;0.70;0.70;;;21.90;99.90;;;;;;5065130;28;20440;-54
2022/08/22 05:28:33;;;;;;;0.93;0.93;;;21.90;99.90;;;;;;5062414;28;20708;-54
2022/08/22 05:31:03;;;;;;;0.93;0.93;;;21.90;99.90;;;;;;5061636;28;20213;-50
2022/08/22 05:33:33;;;;;;;0.95;0.85;;;21.90;99.90;;;;;;5063766;28;20260;-50
2022/08/22 05:36:05;;;;;;;1.15;0.80;;;21.90;99.90;;;;;;5061635;28;20223;-49
2022/08/22 05:38:39;;;;;;;0.80;0.80;;;22.00;99.90;;;;;;5064388;28;20297;-52
2022/08/22 05:41:10;;;;;;;1.23;0.90;;;22.00;99.90;;;;;;5069498;28;20185;-54
2022/08/22 05:43:41;;;;;;;0.75;0.75;;;22.00;99.90;;;;;;5068410;28;20182;-53
2022/08/22 05:46:17;;;;;;;0.82;0.82;;;22.00;99.90;;;;;;5067647;28;20668;-53
2022/08/22 05:48:50;;;;;;;0.60;0.60;;;22.10;99.90;;;;;;5068715;28;20215;-55
2022/08/22 05:51:26;;;;;;;0.70;0.70;;;22.10;99.90;;;;;;5064810;28;20223;-53
2022/08/22 05:54:06;;;;;;;0.80;0.80;;;22.20;99.90;;;;;;5069229;28;20671;-53
2022/08/22 05:56:37;;;;;;;0.82;0.70;;;22.20;99.90;;;;;;5067634;28;20200;-49
2022/08/22 05:59:16;;;;;;;1.20;0.88;;;22.20;99.90;;;;;;5068093;28;20266;-55
2022/08/22 06:01:51;;;;;;;0.60;0.60;;;22.20;99.90;;;;;;5066856;28;20193;-55
2022/08/22 06:04:27;;;;;;;1.85;0.70;;;22.30;99.90;;;;;;5068040;28;20310;-54
2022/08/22 06:06:57;;;;;;;0.60;0.60;;;22.30;99.90;;;;;;5067989;28;20197;-52
2022/08/22 06:09:35;;;;;;;0.77;0.77;;;22.30;99.90;;;;;;5063842;28;20201;-51
2022/08/22 06:12:10;;;;;;;1.08;0.85;;;22.30;99.90;;;;;;5063857;28;20253;-55
2022/08/22 06:14:43;;;;;;;0.75;0.75;;;22.30;99.90;;;;;;5066367;28;20877;-54
2022/08/22 06:17:14;;;;;;;0.98;0.90;;;22.40;99.90;;;;;;5068857;28;20197;-54
2022/08/22 06:19:45;;;;;;;1.10;0.85;;;22.40;99.90;;;;;;5067827;28;20197;-54
2022/08/22 06:22:15;;;;;;;1.08;1.00;;;22.40;99.90;;;;;;5066147;28;20222;-53
2022/08/22 06:24:44;;;;;;;0.80;0.80;;;22.40;99.90;;;;;;5068137;28;20409;-52
2022/08/22 06:27:14;;;;;;;1.48;0.70;;;22.40;99.90;;;;;;5066209;28;20212;-54
2022/08/22 06:29:45;;;;;;;3.25;1.00;;;22.50;99.90;;;;;;5081637;28;20209;-53
2022/08/22 06:32:16;;;;;;;0.80;0.80;;;22.50;99.90;;;;;;5068377;28;20205;-54
2022/08/22 06:34:46;;;;;;;0.95;0.95;;;22.60;99.90;;;;;;5067669;28;20280;-53
2022/08/22 06:37:22;;;;;;;2.15;0.93;;;22.60;99.90;;;;;;5063612;28;20552;-53
2022/08/22 06:39:53;;;;;;;0.98;0.98;;;22.60;99.90;;;;;;5066126;28;20181;-54
2022/08/22 06:42:24;;;;;;;0.70;0.70;;;22.60;99.90;;;;;;5062564;28;20205;-53
2022/08/22 06:44:57;;;;;;;1.25;1.02;;;22.70;99.90;;;;;;5064040;28;20235;-54
2022/08/22 06:47:28;;;;;;;1.17;1.08;;;22.70;99.90;;;;;;5064755;28;20229;-54
2022/08/22 06:50:00;;;;;;;0.90;0.90;;;22.70;99.90;;;;;;5062724;28;20202;-54
2022/08/22 06:52:31;;;;;;;1.13;0.80;;;22.80;99.90;;;;;;5069664;28;20231;-52
2022/08/22 06:55:05;;;;;;;1.58;1.05;;;22.80;99.90;;;;;;5071340;28;20664;-52
2022/08/22 06:57:35;;;;;;;1.50;1.40;;;22.80;99.90;;;;;;5067815;28;20185;-55
2022/08/22 07:00:07;;;;;;;2.35;1.20;;;22.90;99.90;;;;;;5067266;28;20204;-53
2022/08/22 07:02:39;;;;;;;1.30;1.20;;;23.00;99.90;;;;;;5067730;28;20181;-54
2022/08/22 07:05:09;;;;;;;5.28;1.30;;;23.00;99.90;;;;;;5066091;28;20271;-55
2022/08/22 07:07:37;;;;;;;1.40;1.30;;;23.10;99.90;;;;;;5067439;28;20193;-55
2022/08/22 07:10:06;;;;;;;1.45;1.23;;;23.20;99.90;;;;;;5078581;28;20622;-54
2022/08/22 07:12:37;;;;;;;2.95;1.33;;;23.20;99.90;;;;;;5066808;28;20217;-55
2022/08/22 07:15:11;;;;;;;1.20;1.00;;;23.30;99.90;;;;;;5065491;28;20191;-55
2022/08/22 07:17:49;;;;;;;1.40;1.30;;;23.30;99.90;;;;;;5065916;28;20193;-55
2022/08/22 07:20:24;;;;;;;1.08;1.08;;;23.30;99.90;;;;;;5067180;28;20559;-54
2022/08/22 07:22:53;;;;;;;3.33;1.35;;;23.40;99.90;;;;;;5067318;28;20199;-52
2022/08/22 07:25:23;;;;;;;1.05;0.93;;;23.30;99.90;;;;;;5066588;28;20388;-56
2022/08/22 07:28:03;;;;;;;1.10;1.00;;;23.40;99.90;;;;;;5066375;28;20296;-51
2022/08/22 07:30:44;;;;;;;1.52;1.17;;;23.40;99.90;;;;;;5066422;28;20189;-52
2022/08/22 07:33:24;;;;;;;1.30;1.00;;;23.40;99.90;;;;;;5066140;28;20239;-55
2022/08/22 07:36:00;;;;;;;1.10;1.00;;;23.50;99.90;;;;;;5064627;28;20216;-54
2022/08/22 07:38:41;;;;;;;1.02;1.02;;;23.50;99.90;;;;;;5064321;28;20192;-53
2022/08/22 07:41:15;;;;;;;1.23;1.13;;;23.50;99.90;;;;;;5064258;28;20276;-52
2022/08/22 07:43:47;;;;;;;0.95;0.95;;;23.60;99.90;;;;;;5064634;28;20201;-51
2022/08/22 07:46:28;;;;;;;2.08;1.08;;;23.60;99.90;;;;;;5066613;28;20601;-51
2022/08/22 07:49:00;;;;;;;1.20;1.10;;;23.50;99.90;;;;;;5064058;28;20185;-54
2022/08/22 07:51:34;;;;;;;1.45;0.90;;;23.60;99.90;;;;;;5064315;28;20212;-49
2022/08/22 07:54:06;;;;;;;1.85;1.20;;;23.60;99.90;;;;;;5070879;28;20245;-48
2022/08/22 07:56:37;;;;;;;1.20;1.10;;;23.60;99.90;;;;;;5066983;28;20284;-53
2022/08/22 07:59:08;;;;;;;1.45;1.20;;;23.60;99.90;;;;;;5064136;28;20268;-54
2022/08/22 08:01:38;;;;;;;1.50;1.38;;;23.60;99.90;;;;;;5066914;28;20197;-48
2022/08/22 08:04:11;;;;;;;1.10;1.00;;;23.60;99.90;;;;;;5065744;28;20200;-54
2022/08/22 08:06:38;;;;;;;1.30;1.20;;;23.60;99.90;;;;;;5064360;28;20284;-48
2022/08/22 08:09:08;;;;;;;2.65;1.20;;;23.60;99.90;;;;;;5065633;28;20221;-55
2022/08/22 08:11:41;;;;;;;1.40;1.20;;;23.70;99.90;;;;;;5064364;28;20670;-55
2022/08/22 08:14:12;;;;;;;1.10;1.10;;;23.60;99.90;;;;;;5062426;28;20221;-55
2022/08/22 08:16:43;;;;;;;0.90;0.90;;;23.70;99.90;;;;;;5066770;28;20193;-54
2022/08/22 08:19:12;;;;;;;2.10;1.10;;;23.70;99.90;;;;;;5063364;28;20190;-55
2022/08/22 08:21:42;;;;;;;0.88;0.88;;;23.70;99.90;;;;;;5064009;28;20642;-55
2022/08/22 08:24:15;;;;;;;1.38;1.27;;;23.80;99.90;;;;;;5062581;28;20700;-55
2022/08/22 08:29:31;;;;;;;3.65;1.30;;;23.90;99.90;;;;;;5063968;28;20216;-54
2022/08/22 08:32:00;;;;;;;3.70;1.63;;;24.00;99.90;;;;;;5060460;28;20649;-53
2022/08/22 08:34:31;;;;;;;1.20;1.10;;;24.00;99.90;;;;;;5061440;28;20615;-50
2022/08/22 08:37:02;;;;;;;1.45;1.25;;;24.10;99.90;;;;;;5059849;28;20573;-55
2022/08/22 08:39:35;;;;;;;1.30;1.25;;;24.10;99.90;;;;;;5063668;28;20196;-53
2022/08/22 08:43:25;;;;;;;1.60;1.15;;;24.20;99.90;;;;;;5059524;28;20668;-53
2022/08/22 08:45:48;;;;;;;1.48;1.17;;;24.20;99.90;;;;;;5062433;28;20189;-54
2022/08/22 08:48:28;;;;;;;1.23;1.00;;;24.30;99.90;;;;;;5067008;28;20197;-51
2022/08/22 08:51:14;;;;;;;1.23;1.10;;;24.40;99.90;;;;;;5063718;28;20185;-52
2022/08/22 08:53:58;;;;;;;1.25;1.02;;;24.40;99.90;;;;;;5066354;28;20236;-49
2022/08/22 08:56:31;;;;;;;2.30;1.10;;;24.40;99.90;;;;;;5064603;28;20204;-51
2022/08/22 08:59:06;;;;;;;1.67;1.35;;;24.40;99.90;;;;;;5063917;28;20220;-54
2022/08/22 09:02:12;;;;;;;3.00;1.50;;;24.40;99.90;;;;;;5064917;28;20209;-52
2022/08/22 09:05:24;;;;;;;1.85;1.42;;;24.40;99.90;;;;;;5043272;28;20697;-54
2022/08/22 09:08:18;;;;;;;2.47;1.35;;;24.40;99.90;;;;;;5058525;28;20236;-48
2022/08/22 09:11:05;;;;;;;5.80;2.10;;;24.30;99.90;;;;;;5064285;28;20189;-52
2022/08/22 09:13:48;;;;;;;2.45;1.52;;;24.60;99.90;;;;;;5065476;28;20643;-51
2022/08/22 09:16:41;;;;;;;2.08;1.60;;;24.60;99.90;;;;;;5064055;28;20190;-52
2022/08/22 09:19:34;;;;;;;3.92;1.42;;;24.70;99.90;;;;;;5065420;28;20276;-52
2022/08/22 09:22:42;;;;;;;4.28;1.58;;;24.70;99.90;;;;;;5067313;28;20659;-53
2022/08/22 09:25:34;;;;;;;3.95;1.58;;;24.80;99.90;;;;;;5029420;28;20678;-51
2022/08/22 09:28:12;;;;;;;4.03;1.40;;;24.80;99.90;;;;;;5060735;28;20593;-53
2022/08/22 09:30:57;;;;;;;4.32;1.60;;;24.80;99.90;;;;;;5069393;28;20193;-50
2022/08/22 09:33:33;;;;;;;1.90;1.50;;;24.70;99.90;;;;;;5066715;28;20205;-52
2022/08/22 09:36:05;;;;;;;4.53;1.60;;;24.70;99.90;;;;;;5065938;28;20193;-53
2022/08/22 09:38:43;;;;;;;2.15;1.75;;;24.70;99.90;;;;;;5065040;28;20715;-51
2022/08/22 09:41:25;;;;;;;3.42;1.38;;;24.70;99.90;;;;;;5066085;28;20196;-54
2022/08/22 09:44:05;;;;;;;1.75;1.38;;;24.70;99.90;;;;;;5063549;28;20229;-50
2022/08/22 09:46:37;;;;;;;1.67;1.30;;;24.70;99.90;;;;;;5064555;28;20199;-53
2022/08/22 09:49:11;;;;;;;1.45;1.35;;;24.70;99.90;;;;;;5063360;28;20346;-52
2022/08/22 09:51:45;;;;;;;2.10;1.45;;;24.60;99.90;;;;;;5067385;28;20185;-51
2022/08/22 09:54:21;;;;;;;3.72;1.48;;;24.60;99.90;;;;;;5069695;28;20542;-55
2022/08/22 09:56:57;;;;;;;4.63;1.80;;;24.60;99.90;;;;;;5071735;28;20216;-54
2022/08/22 09:59:41;;;;;;;1.95;1.52;;;24.60;99.90;;;;;;5063368;28;20200;-53
2022/08/22 10:02:20;;;;;;;3.72;1.38;;;24.60;99.90;;;;;;5065018;28;20206;-50
2022/08/22 10:04:57;;;;;;;1.73;1.25;;;24.60;99.90;;;;;;5067615;28;20235;-54
2022/08/22 10:07:55;;;;;;;4.72;1.73;;;24.70;99.90;;;;;;5066413;28;20283;-50
2022/08/22 10:10:49;;;;;;;1.63;1.30;;;24.70;99.90;;;;;;5063100;28;20189;-53
2022/08/22 10:13:31;;;;;;;2.13;1.52;;;24.70;99.90;;;;;;5065766;28;20225;-55
2022/08/22 10:16:16;;;;;;;1.80;1.65;;;24.70;99.90;;;;;;5067216;28;20193;-49
2022/08/22 10:18:52;;;;;;;8.63;1.85;;;24.70;99.90;;;;;;5064928;28;20638;-53
2022/08/22 10:21:30;;;;;;;4.35;1.33;;;24.70;99.90;;;;;;5063652;28;20599;-54
2022/08/22 10:24:07;;;;;;;5.90;1.52;;;24.70;99.90;;;;;;5068238;28;20197;-53
2022/08/22 10:26:41;;;;;;;2.95;1.52;;;24.70;99.90;;;;;;5065692;28;20561;-55
2022/08/22 10:29:16;;;;;;;2.53;1.70;;;24.70;99.90;;;;;;5067912;28;20237;-55
2022/08/22 10:31:50;;;;;;;2.33;1.52;;;24.80;99.90;;;;;;5065034;28;20201;-54
2022/08/22 10:34:22;;;;;;;2.65;1.70;;;24.70;99.90;;;;;;5068228;28;20212;-51
2022/08/22 10:36:57;;;;;;;7.10;1.73;;;24.70;99.90;;;;;;5063975;28;20254;-53
2022/08/22 10:39:30;;;;;;;4.18;1.90;;;24.80;99.90;;;;;;5065279;28;20284;-54
2022/08/22 10:42:17;;;;;;;4.13;1.55;;;24.70;99.90;;;;;;5067067;28;20280;-54
2022/08/22 10:44:55;;;;;;;3.75;1.60;;;24.80;99.90;;;;;;5065879;28;20185;-51
2022/08/22 10:47:28;;;;;;;3.47;1.70;;;24.80;99.90;;;;;;5065381;28;20197;-50
2022/08/22 10:50:03;;;;;;;2.92;1.95;;;24.80;99.90;;;;;;5065213;28;20193;-52
2022/08/22 10:52:35;;;;;;;2.17;1.60;;;24.80;99.90;;;;;;5065881;28;20288;-52
2022/08/22 10:55:11;;;;;;;1.40;1.30;;;24.80;99.90;;;;;;5067808;28;20181;-54
2022/08/22 10:57:57;;;;;;;2.53;1.70;;;24.80;99.90;;;;;;5066914;28;20189;-53
2022/08/22 11:00:42;;;;;;;2.80;1.50;;;24.80;99.90;;;;;;5064928;28;20272;-48
2022/08/22 11:03:15;;;;;;;1.30;1.10;;;24.80;99.90;;;;;;5065101;28;20193;-49
2022/08/22 11:05:43;;;;;;;2.38;1.40;;;24.90;99.90;;;;;;5065679;28;20235;-54
2022/08/22 11:08:49;;;;;;;2.25;1.33;;;24.90;99.90;;;;;;5063852;28;20221;-51
2022/08/22 11:11:35;;;;;;;1.92;1.42;;;24.90;99.90;;;;;;5044035;28;20201;-52
2022/08/22 11:14:38;;;;;;;4.13;1.48;;;24.90;99.90;;;;;;5064938;28;20331;-52
2022/08/22 11:17:29;;;;;;;1.83;1.30;;;24.90;99.90;;;;;;5065839;28;20223;-54
2022/08/22 11:20:19;;;;;;;3.03;1.60;;;24.90;99.90;;;;;;5063406;28;20678;-54
2022/08/22 11:23:11;;;;;;;4.75;1.60;;;24.90;99.90;;;;;;5060877;28;20292;-55
2022/08/22 11:25:52;;;;;;;2.08;1.77;;;24.90;99.90;;;;;;5065966;28;20205;-53
2022/08/22 11:28:53;;;;;;;4.07;1.95;;;24.90;99.90;;;;;;5066431;28;21084;-52
2022/08/22 11:31:26;;;;;;;3.10;1.30;;;24.90;99.90;;;;;;5051495;28;20703;-54
2022/08/22 11:33:59;;;;;;;3.35;1.52;;;24.90;99.90;;;;;;5065891;28;20197;-52
2022/08/22 11:36:36;;;;;;;4.05;1.67;;;24.90;99.90;;;;;;5064693;28;20227;-53
2022/08/22 11:39:12;;;;;;;3.03;1.42;;;24.90;99.90;;;;;;5063642;28;20539;-52
2022/08/22 11:41:44;;;;;;;2.13;1.42;;;24.90;99.90;;;;;;5065222;28;20226;-50
2022/08/22 11:44:18;;;;;;;3.13;1.80;;;24.90;99.90;;;;;;5067656;28;20189;-52
2022/08/22 11:46:48;;;;;;;1.42;1.33;;;24.90;99.90;;;;;;5062723;28;20694;-51
2022/08/22 11:49:26;;;;;;;1.90;1.33;;;24.90;99.90;;;;;;5064003;28;20224;-51
2022/08/22 11:52:03;;;;;;;2.35;1.10;;;24.90;99.90;;;;;;5065106;28;20186;-51
2022/08/22 11:54:39;;;;;;;1.20;1.10;;;24.90;99.90;;;;;;5062962;28;20632;-48
2022/08/22 11:57:11;;;;;;;3.70;1.10;;;24.90;99.90;;;;;;5066586;28;20964;-51
2022/08/22 11:59:59;;;;;;;1.85;1.50;;;24.90;99.90;;;;;;5064284;28;20641;-54
2022/08/22 12:02:39;;;;;;;2.33;1.73;;;24.90;99.90;;;;;;5065686;28;20220;-46
2022/08/22 12:05:14;;;;;;;3.63;1.90;;;24.90;99.90;;;;;;5062869;28;20652;-49
2022/08/22 12:07:47;;;;;;;1.33;1.23;;;24.90;99.90;;;;;;5064128;28;20200;-50
2022/08/22 12:10:17;;;;;;;2.70;1.40;;;24.90;99.90;;;;;;5061865;28;20814;-51
2022/08/22 12:12:54;;;;;;;2.70;1.60;;;24.90;99.90;;;;;;5065261;28;20235;-54
2022/08/22 12:15:27;;;;;;;1.98;1.30;;;24.90;99.90;;;;;;5060396;28;20651;-54
2022/08/22 12:18:30;;;;;;;2.58;1.45;;;24.90;99.90;;;;;;5058734;28;20259;-54
2022/08/22 12:21:08;;;;;;;1.83;1.13;;;24.90;99.90;;;;;;5063297;28;20190;-54
2022/08/22 12:23:51;;;;;;;1.58;1.10;;;24.90;99.90;;;;;;5065764;28;20683;-53
2022/08/22 12:26:27;;;;;;;1.67;1.20;;;25.00;99.90;;;;;;5065004;28;20580;-53
2022/08/22 12:29:17;;;;;;;2.55;1.67;;;24.90;99.90;;;;;;5060083;28;20304;-49
2022/08/22 12:32:32;;;;;;;2.55;1.55;;;24.90;99.90;;;;;;5064451;28;20232;-53
2022/08/22 12:35:16;;;;;;;2.58;1.60;;;24.90;99.90;;;;;;5031033;28;20263;-54
2022/08/22 12:37:53;;;;;;;2.70;1.38;;;24.90;99.90;;;;;;5066174;28;20193;-55
2022/08/22 12:40:31;;;;;;;1.42;1.13;;;24.90;99.90;;;;;;5061523;28;20201;-53
2022/08/22 12:43:43;;;;;;;1.60;1.50;;;24.90;99.90;;;;;;5063058;28;20197;-52
2022/08/22 12:46:17;;;;;;;2.03;1.30;;;24.90;99.90;;;;;;5025170;28;20565;-55
2022/08/22 12:49:19;;;;;;;2.45;1.55;;;24.90;99.90;;;;;;5052694;28;20713;-53
2022/08/22 12:52:01;;;;;;;2.28;1.10;;;24.90;99.90;;;;;;5057889;28;20342;-55
2022/08/22 12:54:55;;;;;;;2.28;1.30;;;24.90;99.90;;;;;;5061203;28;20258;-54
2022/08/22 12:57:36;;;;;;;1.60;1.15;;;24.90;99.90;;;;;;5062247;28;20205;-53
2022/08/22 13:00:18;;;;;;;1.40;0.85;;;25.00;99.90;;;;;;5063913;28;20212;-54
2022/08/22 13:02:51;;;;;;;2.22;1.17;;;25.00;99.90;;;;;;5062332;28;20202;-53
2022/08/22 13:05:21;;;;;;;2.45;1.15;;;25.00;99.90;;;;;;5059703;28;20392;-54
2022/08/22 13:07:54;;;;;;;1.38;1.20;;;25.00;99.90;;;;;;5058079;28;20185;-54
2022/08/22 13:10:35;;;;;;;3.42;1.10;;;25.00;99.90;;;;;;5059507;28;20712;-54
2022/08/22 13:13:04;;;;;;;4.78;1.30;;;25.10;99.90;;;;;;5061638;28;20233;-54
2022/08/22 13:15:34;;;;;;;3.63;1.30;;;25.10;99.90;;;;;;5059788;28;20522;-54
2022/08/22 13:18:05;;;;;;;2.33;1.40;;;25.10;99.90;;;;;;5063264;28;20194;-55
2022/08/22 13:20:36;;;;;;;4.75;1.30;;;25.10;99.90;;;;;;5060290;28;20219;-52
2022/08/22 13:23:14;;;;;;;1.92;1.10;;;25.10;99.90;;;;;;5064790;28;20193;-52
2022/08/22 13:26:02;;;;;;;3.05;1.02;;;25.10;99.90;;;;;;5065571;28;20185;-55
2022/08/22 13:28:31;;;;;;;1.40;1.10;;;25.10;99.90;;;;;;5064074;28;22132;-49
2022/08/22 13:31:01;;;;;;;1.00;1.00;;;25.00;99.90;;;;;;5061440;28;20229;-52
2022/08/22 13:33:32;;;;;;;6.53;1.38;;;25.10;99.90;;;;;;5059071;28;20808;-52
2022/08/22 13:36:05;;;;;;;4.60;1.10;;;25.10;99.90;;;;;;5058562;28;20661;-54
2022/08/22 13:38:39;;;;;;;6.55;1.35;;;25.00;99.90;;;;;;5061420;28;20665;-50
2022/08/22 13:41:08;;;;;;;3.28;1.35;;;25.00;99.90;;;;;;5062995;28;20196;-53
2022/08/22 13:43:54;;;;;;;2.08;1.20;;;25.00;99.90;;;;;;5063476;28;20239;-53
2022/08/22 13:46:26;;;;;;;3.63;1.50;;;25.00;99.90;;;;;;5064131;28;20185;-54
2022/08/22 13:48:55;;;;;;;2.20;1.27;;;25.00;99.90;;;;;;5064085;28;20206;-52
2022/08/22 13:51:28;;;;;;;2.50;1.00;;;25.00;99.90;;;;;;5065454;28;20362;-49
2022/08/22 13:54:04;;;;;;;1.52;0.80;;;25.00;99.90;;;;;;5062314;28;20194;-48